sensor_id;sensor_type;location;lat;lon;timestamp;temperature;humidity
16404;DHT22;8311;50.158;8.642;2022-07-01T00:02:34;27.30;46.10
16404;DHT22;8311;50.158;8.642;2022-07-01T00:05:27;27.30;46.10
16404;DHT22;8311;50.158;8.642;2022-07-01T00:08:19;27.30;46.10
16404;DHT22;8311;50.158;8.642;2022-07-01T00:11:13;27.30;46.00
16404;DHT22;8311;50.158;8.642;2022-07-01T00:14:08;27.30;45.90
16404;DHT22;8311;50.158;8.642;2022-07-01T00:17:02;27.30;45.90
16404;DHT22;8311;50.158;8.642;2022-07-01T00:19:56;27.30;45.90
16404;DHT22;8311;50.158;8.642;2022-07-01T00:22:49;27.30;45.90
16404;DHT22;8311;50.158;8.642;2022-07-01T00:25:43;27.30;45.90
16404;DHT22;8311;50.158;8.642;2022-07-01T00:28:37;27.30;45.80
16404;DHT22;8311;50.158;8.642;2022-07-01T00:31:31;27.30;45.80
16404;DHT22;8311;50.158;8.642;2022-07-01T00:34:24;27.30;45.70
16404;DHT22;8311;50.158;8.642;2022-07-01T00:37:18;27.30;45.70
16404;DHT22;8311;50.158;8.642;2022-07-01T00:40:12;27.30;45.60
16404;DHT22;8311;50.158;8.642;2022-07-01T00:43:04;27.30;45.60
16404;DHT22;8311;50.158;8.642;2022-07-01T00:45:58;27.30;45.50
16404;DHT22;8311;50.158;8.642;2022-07-01T00:48:55;27.30;45.50
16404;DHT22;8311;50.158;8.642;2022-07-01T00:51:49;27.20;45.50
16404;DHT22;8311;50.158;8.642;2022-07-01T00:54:43;27.30;45.40
16404;DHT22;8311;50.158;8.642;2022-07-01T00:57:38;27.30;45.50
16404;DHT22;8311;50.158;8.642;2022-07-01T01:00:32;27.30;45.60
16404;DHT22;8311;50.158;8.642;2022-07-01T01:03:26;27.20;45.50
16404;DHT22;8311;50.158;8.642;2022-07-01T01:06:21;27.30;45.60
16404;DHT22;8311;50.158;8.642;2022-07-01T01:09:15;27.30;45.60
16404;DHT22;8311;50.158;8.642;2022-07-01T01:12:09;27.30;45.70
16404;DHT22;8311;50.158;8.642;2022-07-01T01:15:04;27.30;45.70
16404;DHT22;8311;50.158;8.642;2022-07-01T01:17:57;27.30;45.80
16404;DHT22;8311;50.158;8.642;2022-07-01T01:20:53;27.30;45.70
16404;DHT22;8311;50.158;8.642;2022-07-01T01:23:47;27.30;45.80
16404;DHT22;8311;50.158;8.642;2022-07-01T01:26:39;27.30;46.50
16404;DHT22;8311;50.158;8.642;2022-07-01T01:29:35;27.20;45.80
16404;DHT22;8311;50.158;8.642;2022-07-01T01:32:29;27.30;45.90
16404;DHT22;8311;50.158;8.642;2022-07-01T01:35:22;27.30;45.90
16404;DHT22;8311;50.158;8.642;2022-07-01T01:38:17;27.30;45.90
16404;DHT22;8311;50.158;8.642;2022-07-01T01:41:11;27.20;45.90
16404;DHT22;8311;50.158;8.642;2022-07-01T01:44:05;27.30;45.90
16404;DHT22;8311;50.158;8.642;2022-07-01T01:46:59;27.20;45.90
16404;DHT22;8311;50.158;8.642;2022-07-01T01:49:53;27.30;45.90
16404;DHT22;8311;50.158;8.642;2022-07-01T01:52:48;27.20;45.90
16404;DHT22;8311;50.158;8.642;2022-07-01T01:55:42;27.20;45.90
16404;DHT22;8311;50.158;8.642;2022-07-01T01:58:36;27.20;45.90
16404;DHT22;8311;50.158;8.642;2022-07-01T02:01:35;27.30;46.00
16404;DHT22;8311;50.158;8.642;2022-07-01T02:04:27;27.20;45.90
16404;DHT22;8311;50.158;8.642;2022-07-01T02:07:21;27.20;46.00
16404;DHT22;8311;50.158;8.642;2022-07-01T02:10:15;27.30;46.00
16404;DHT22;8311;50.158;8.642;2022-07-01T02:13:10;27.20;46.00
16404;DHT22;8311;50.158;8.642;2022-07-01T02:16:04;27.30;46.00
16404;DHT22;8311;50.158;8.642;2022-07-01T02:18:58;27.20;46.00
16404;DHT22;8311;50.158;8.642;2022-07-01T02:21:51;27.20;46.00
16404;DHT22;8311;50.158;8.642;2022-07-01T02:24:44;27.20;46.00
16404;DHT22;8311;50.158;8.642;2022-07-01T02:27:37;27.30;46.10
16404;DHT22;8311;50.158;8.642;2022-07-01T02:30:31;27.20;46.10
16404;DHT22;8311;50.158;8.642;2022-07-01T02:33:28;27.20;46.10
16404;DHT22;8311;50.158;8.642;2022-07-01T02:36:21;27.20;46.10
16404;DHT22;8311;50.158;8.642;2022-07-01T02:39:15;27.20;46.10
16404;DHT22;8311;50.158;8.642;2022-07-01T02:42:08;27.20;46.10
16404;DHT22;8311;50.158;8.642;2022-07-01T02:45:18;27.20;46.10
16404;DHT22;8311;50.158;8.642;2022-07-01T02:48:13;27.30;46.10
16404;DHT22;8311;50.158;8.642;2022-07-01T02:51:07;27.20;46.10
16404;DHT22;8311;50.158;8.642;2022-07-01T02:54:00;27.20;46.10
16404;DHT22;8311;50.158;8.642;2022-07-01T02:56:53;27.30;46.10
16404;DHT22;8311;50.158;8.642;2022-07-01T02:59:47;27.20;46.10
16404;DHT22;8311;50.158;8.642;2022-07-01T03:02:40;27.20;46.10
16404;DHT22;8311;50.158;8.642;2022-07-01T03:05:34;27.20;46.10
16404;DHT22;8311;50.158;8.642;2022-07-01T03:08:28;27.20;46.10
16404;DHT22;8311;50.158;8.642;2022-07-01T03:11:22;27.20;46.10
16404;DHT22;8311;50.158;8.642;2022-07-01T03:14:15;27.20;46.10
16404;DHT22;8311;50.158;8.642;2022-07-01T03:17:08;27.20;46.10
16404;DHT22;8311;50.158;8.642;2022-07-01T03:20:02;27.20;46.10
16404;DHT22;8311;50.158;8.642;2022-07-01T03:22:57;27.20;46.20
16404;DHT22;8311;50.158;8.642;2022-07-01T03:25:50;27.20;46.10
16404;DHT22;8311;50.158;8.642;2022-07-01T03:28:43;27.20;46.10
16404;DHT22;8311;50.158;8.642;2022-07-01T03:31:36;27.20;46.10
16404;DHT22;8311;50.158;8.642;2022-07-01T03:34:29;27.20;46.20
16404;DHT22;8311;50.158;8.642;2022-07-01T03:37:22;27.20;46.20
16404;DHT22;8311;50.158;8.642;2022-07-01T03:40:17;27.20;46.20
16404;DHT22;8311;50.158;8.642;2022-07-01T03:43:11;27.20;46.20
16404;DHT22;8311;50.158;8.642;2022-07-01T03:46:10;27.20;46.20
16404;DHT22;8311;50.158;8.642;2022-07-01T03:49:04;27.20;46.20
16404;DHT22;8311;50.158;8.642;2022-07-01T03:51:57;27.20;46.20
16404;DHT22;8311;50.158;8.642;2022-07-01T03:54:51;27.20;46.30
16404;DHT22;8311;50.158;8.642;2022-07-01T03:57:44;27.20;46.20
16404;DHT22;8311;50.158;8.642;2022-07-01T04:00:39;27.20;46.20
16404;DHT22;8311;50.158;8.642;2022-07-01T04:03:32;27.20;46.20
16404;DHT22;8311;50.158;8.642;2022-07-01T04:06:25;27.20;46.20
16404;DHT22;8311;50.158;8.642;2022-07-01T04:09:19;27.20;46.20
16404;DHT22;8311;50.158;8.642;2022-07-01T04:12:12;27.20;46.30
16404;DHT22;8311;50.158;8.642;2022-07-01T04:15:07;27.20;46.30
16404;DHT22;8311;50.158;8.642;2022-07-01T04:18:01;27.20;46.30
16404;DHT22;8311;50.158;8.642;2022-07-01T04:20:56;27.20;46.20
16404;DHT22;8311;50.158;8.642;2022-07-01T04:24:06;27.20;46.20
16404;DHT22;8311;50.158;8.642;2022-07-01T04:27:00;27.20;46.20
16404;DHT22;8311;50.158;8.642;2022-07-01T04:29:54;27.20;46.10
16404;DHT22;8311;50.158;8.642;2022-07-01T04:32:49;27.20;46.00
16404;DHT22;8311;50.158;8.642;2022-07-01T04:35:42;27.20;45.90
16404;DHT22;8311;50.158;8.642;2022-07-01T04:38:35;27.20;45.90
16404;DHT22;8311;50.158;8.642;2022-07-01T04:41:28;27.20;45.80
16404;DHT22;8311;50.158;8.642;2022-07-01T04:44:39;27.20;45.80
16404;DHT22;8311;50.158;8.642;2022-07-01T04:47:35;27.20;45.70
16404;DHT22;8311;50.158;8.642;2022-07-01T04:50:29;27.20;45.80
16404;DHT22;8311;50.158;8.642;2022-07-01T04:53:23;27.20;45.60
16404;DHT22;8311;50.158;8.642;2022-07-01T04:56:17;27.20;45.60
16404;DHT22;8311;50.158;8.642;2022-07-01T04:59:12;27.20;45.60
16404;DHT22;8311;50.158;8.642;2022-07-01T05:02:05;27.20;45.50
16404;DHT22;8311;50.158;8.642;2022-07-01T05:05:03;27.20;45.40
16404;DHT22;8311;50.158;8.642;2022-07-01T05:07:58;27.20;45.40
16404;DHT22;8311;50.158;8.642;2022-07-01T05:10:51;27.20;45.20
16404;DHT22;8311;50.158;8.642;2022-07-01T05:13:44;27.20;45.20
16404;DHT22;8311;50.158;8.642;2022-07-01T05:16:37;27.20;45.30
16404;DHT22;8311;50.158;8.642;2022-07-01T05:19:30;27.20;45.20
16404;DHT22;8311;50.158;8.642;2022-07-01T05:22:41;27.20;45.20
16404;DHT22;8311;50.158;8.642;2022-07-01T05:25:35;27.20;45.20
16404;DHT22;8311;50.158;8.642;2022-07-01T05:28:28;27.20;45.20
16404;DHT22;8311;50.158;8.642;2022-07-01T05:31:21;27.10;45.00
16404;DHT22;8311;50.158;8.642;2022-07-01T05:34:15;27.10;45.00
16404;DHT22;8311;50.158;8.642;2022-07-01T05:37:08;27.20;45.00
16404;DHT22;8311;50.158;8.642;2022-07-01T05:40:03;27.20;45.00
16404;DHT22;8311;50.158;8.642;2022-07-01T05:42:58;27.10;44.90
16404;DHT22;8311;50.158;8.642;2022-07-01T05:45:51;27.10;44.80
16404;DHT22;8311;50.158;8.642;2022-07-01T05:48:44;27.20;44.90
16404;DHT22;8311;50.158;8.642;2022-07-01T05:51:37;27.10;44.80
16404;DHT22;8311;50.158;8.642;2022-07-01T05:54:30;27.10;44.80
16404;DHT22;8311;50.158;8.642;2022-07-01T05:57:23;27.10;44.70
16404;DHT22;8311;50.158;8.642;2022-07-01T06:00:17;27.10;44.70
16404;DHT22;8311;50.158;8.642;2022-07-01T06:03:12;27.10;44.60
16404;DHT22;8311;50.158;8.642;2022-07-01T06:06:06;27.20;44.80
16404;DHT22;8311;50.158;8.642;2022-07-01T06:08:59;27.10;44.50
16404;DHT22;8311;50.158;8.642;2022-07-01T06:11:52;27.10;44.60
16404;DHT22;8311;50.158;8.642;2022-07-01T06:14:46;27.10;44.50
16404;DHT22;8311;50.158;8.642;2022-07-01T06:17:41;27.10;44.50
16404;DHT22;8311;50.158;8.642;2022-07-01T06:20:34;27.10;44.50
16404;DHT22;8311;50.158;8.642;2022-07-01T06:23:27;27.10;44.40
16404;DHT22;8311;50.158;8.642;2022-07-01T06:26:21;27.10;44.30
16404;DHT22;8311;50.158;8.642;2022-07-01T06:29:14;27.10;44.20
16404;DHT22;8311;50.158;8.642;2022-07-01T06:32:08;27.10;44.20
16404;DHT22;8311;50.158;8.642;2022-07-01T06:35:03;27.10;44.30
16404;DHT22;8311;50.158;8.642;2022-07-01T06:37:57;27.10;44.20
16404;DHT22;8311;50.158;8.642;2022-07-01T06:40:55;27.10;44.20
16404;DHT22;8311;50.158;8.642;2022-07-01T06:44:06;27.10;44.30
16404;DHT22;8311;50.158;8.642;2022-07-01T06:46:59;27.10;44.80
16404;DHT22;8311;50.158;8.642;2022-07-01T06:49:52;27.10;44.20
16404;DHT22;8311;50.158;8.642;2022-07-01T06:52:49;27.10;44.10
16404;DHT22;8311;50.158;8.642;2022-07-01T06:55:43;27.10;44.10
16404;DHT22;8311;50.158;8.642;2022-07-01T06:58:42;27.10;44.10
16404;DHT22;8311;50.158;8.642;2022-07-01T07:01:36;27.10;44.10
16404;DHT22;8311;50.158;8.642;2022-07-01T07:04:29;27.10;44.10
16404;DHT22;8311;50.158;8.642;2022-07-01T07:07:42;27.10;44.10
16404;DHT22;8311;50.158;8.642;2022-07-01T07:10:37;27.10;44.10
16404;DHT22;8311;50.158;8.642;2022-07-01T07:13:30;27.10;44.00
16404;DHT22;8311;50.158;8.642;2022-07-01T07:16:23;27.10;44.10
16404;DHT22;8311;50.158;8.642;2022-07-01T07:19:18;27.10;44.00
16404;DHT22;8311;50.158;8.642;2022-07-01T07:22:11;27.10;44.00
16404;DHT22;8311;50.158;8.642;2022-07-01T07:25:05;27.10;44.00
16404;DHT22;8311;50.158;8.642;2022-07-01T07:28:00;27.10;43.90
16404;DHT22;8311;50.158;8.642;2022-07-01T07:30:53;27.10;43.90
16404;DHT22;8311;50.158;8.642;2022-07-01T07:33:46;27.10;43.90
16404;DHT22;8311;50.158;8.642;2022-07-01T07:36:39;27.10;43.80
16404;DHT22;8311;50.158;8.642;2022-07-01T07:39:33;27.10;43.80
16404;DHT22;8311;50.158;8.642;2022-07-01T07:42:27;27.10;43.70
16404;DHT22;8311;50.158;8.642;2022-07-01T07:45:22;27.10;43.70
16404;DHT22;8311;50.158;8.642;2022-07-01T07:48:15;27.10;43.70
16404;DHT22;8311;50.158;8.642;2022-07-01T07:51:08;27.10;43.70
16404;DHT22;8311;50.158;8.642;2022-07-01T07:54:02;27.10;43.60
16404;DHT22;8311;50.158;8.642;2022-07-01T07:56:55;27.10;43.60
16404;DHT22;8311;50.158;8.642;2022-07-01T07:59:49;27.10;43.50
16404;DHT22;8311;50.158;8.642;2022-07-01T08:02:44;27.10;43.60
16404;DHT22;8311;50.158;8.642;2022-07-01T08:05:38;27.10;43.60
16404;DHT22;8311;50.158;8.642;2022-07-01T08:08:32;27.10;43.70
16404;DHT22;8311;50.158;8.642;2022-07-01T08:11:25;27.10;43.70
16404;DHT22;8311;50.158;8.642;2022-07-01T08:14:18;27.00;43.60
16404;DHT22;8311;50.158;8.642;2022-07-01T08:17:14;27.00;43.70
16404;DHT22;8311;50.158;8.642;2022-07-01T08:20:10;27.00;44.30
16404;DHT22;8311;50.158;8.642;2022-07-01T08:23:03;27.00;43.80
16404;DHT22;8311;50.158;8.642;2022-07-01T08:25:56;27.10;43.90
16404;DHT22;8311;50.158;8.642;2022-07-01T08:28:50;27.00;43.80
16404;DHT22;8311;50.158;8.642;2022-07-01T08:31:43;27.00;43.80
16404;DHT22;8311;50.158;8.642;2022-07-01T08:34:41;27.00;43.80
16404;DHT22;8311;50.158;8.642;2022-07-01T08:37:36;27.00;43.90
16404;DHT22;8311;50.158;8.642;2022-07-01T08:40:30;27.00;43.90
16404;DHT22;8311;50.158;8.642;2022-07-01T08:43:24;27.00;43.90
16404;DHT22;8311;50.158;8.642;2022-07-01T08:46:18;27.00;43.90
16404;DHT22;8311;50.158;8.642;2022-07-01T08:49:12;27.00;44.00
16404;DHT22;8311;50.158;8.642;2022-07-01T08:52:06;27.00;43.90
16404;DHT22;8311;50.158;8.642;2022-07-01T08:55:04;27.00;44.00
16404;DHT22;8311;50.158;8.642;2022-07-01T08:57:58;27.00;44.10
16404;DHT22;8311;50.158;8.642;2022-07-01T09:00:52;27.00;44.10
16404;DHT22;8311;50.158;8.642;2022-07-01T09:03:53;27.00;44.00
16404;DHT22;8311;50.158;8.642;2022-07-01T09:06:48;27.00;44.10
16404;DHT22;8311;50.158;8.642;2022-07-01T09:09:41;27.00;44.10
16404;DHT22;8311;50.158;8.642;2022-07-01T09:12:40;27.00;44.20
16404;DHT22;8311;50.158;8.642;2022-07-01T09:15:35;27.00;44.20
16404;DHT22;8311;50.158;8.642;2022-07-01T09:18:28;27.00;44.10
16404;DHT22;8311;50.158;8.642;2022-07-01T09:21:28;27.00;44.10
16404;DHT22;8311;50.158;8.642;2022-07-01T09:24:30;27.00;44.20
16404;DHT22;8311;50.158;8.642;2022-07-01T09:27:25;27.00;44.20
16404;DHT22;8311;50.158;8.642;2022-07-01T09:30:27;27.00;44.20
16404;DHT22;8311;50.158;8.642;2022-07-01T09:33:21;27.00;44.10
16404;DHT22;8311;50.158;8.642;2022-07-01T09:36:15;27.00;44.10
16404;DHT22;8311;50.158;8.642;2022-07-01T09:39:08;27.00;44.10
16404;DHT22;8311;50.158;8.642;2022-07-01T09:42:22;27.00;44.10
16404;DHT22;8311;50.158;8.642;2022-07-01T09:45:15;27.00;44.00
16404;DHT22;8311;50.158;8.642;2022-07-01T09:48:10;27.00;44.00
16404;DHT22;8311;50.158;8.642;2022-07-01T09:51:07;27.00;44.00
16404;DHT22;8311;50.158;8.642;2022-07-01T09:54:06;27.00;44.00
16404;DHT22;8311;50.158;8.642;2022-07-01T09:56:59;27.00;43.90
16404;DHT22;8311;50.158;8.642;2022-07-01T09:59:52;27.00;43.90
16404;DHT22;8311;50.158;8.642;2022-07-01T10:02:47;27.00;43.90
16404;DHT22;8311;50.158;8.642;2022-07-01T10:05:47;27.00;43.80
16404;DHT22;8311;50.158;8.642;2022-07-01T10:08:50;27.00;43.80
16404;DHT22;8311;50.158;8.642;2022-07-01T10:12:07;27.00;43.80
16404;DHT22;8311;50.158;8.642;2022-07-01T10:15:07;26.90;43.70
16404;DHT22;8311;50.158;8.642;2022-07-01T10:18:00;27.00;43.80
16404;DHT22;8311;50.158;8.642;2022-07-01T10:20:56;26.90;43.60
16404;DHT22;8311;50.158;8.642;2022-07-01T10:23:50;26.90;44.40
16404;DHT22;8311;50.158;8.642;2022-07-01T10:26:44;26.90;43.70
16404;DHT22;8311;50.158;8.642;2022-07-01T10:29:37;26.90;43.70
16404;DHT22;8311;50.158;8.642;2022-07-01T10:32:30;26.90;43.70
16404;DHT22;8311;50.158;8.642;2022-07-01T10:35:47;26.90;43.80
16404;DHT22;8311;50.158;8.642;2022-07-01T10:39:12;26.90;43.80
16404;DHT22;8311;50.158;8.642;2022-07-01T10:42:06;26.90;43.80
16404;DHT22;8311;50.158;8.642;2022-07-01T10:45:11;26.90;43.70
16404;DHT22;8311;50.158;8.642;2022-07-01T10:48:18;26.90;43.70
16404;DHT22;8311;50.158;8.642;2022-07-01T10:51:12;26.90;43.70
16404;DHT22;8311;50.158;8.642;2022-07-01T10:54:09;27.00;43.70
16404;DHT22;8311;50.158;8.642;2022-07-01T10:57:22;27.00;43.80
16404;DHT22;8311;50.158;8.642;2022-07-01T11:00:26;26.90;43.70
16404;DHT22;8311;50.158;8.642;2022-07-01T11:03:27;26.90;43.70
16404;DHT22;8311;50.158;8.642;2022-07-01T11:06:20;26.90;43.70
16404;DHT22;8311;50.158;8.642;2022-07-01T11:09:13;26.90;43.70
16404;DHT22;8311;50.158;8.642;2022-07-01T11:12:10;26.90;43.70
16404;DHT22;8311;50.158;8.642;2022-07-01T11:15:06;26.90;43.70
16404;DHT22;8311;50.158;8.642;2022-07-01T11:18:02;26.90;43.80
16404;DHT22;8311;50.158;8.642;2022-07-01T11:21:05;26.90;43.80
16404;DHT22;8311;50.158;8.642;2022-07-01T11:23:59;26.90;43.80
16404;DHT22;8311;50.158;8.642;2022-07-01T11:26:55;26.90;43.80
16404;DHT22;8311;50.158;8.642;2022-07-01T11:29:53;26.90;43.70
16404;DHT22;8311;50.158;8.642;2022-07-01T11:32:49;26.90;43.70
16404;DHT22;8311;50.158;8.642;2022-07-01T11:35:43;26.90;43.70
16404;DHT22;8311;50.158;8.642;2022-07-01T11:38:55;26.90;43.70
16404;DHT22;8311;50.158;8.642;2022-07-01T11:42:06;26.90;43.70
16404;DHT22;8311;50.158;8.642;2022-07-01T11:44:59;26.90;43.70
16404;DHT22;8311;50.158;8.642;2022-07-01T11:47:54;26.90;43.70
16404;DHT22;8311;50.158;8.642;2022-07-01T11:50:48;26.90;43.60
16404;DHT22;8311;50.158;8.642;2022-07-01T11:53:43;26.90;43.60
16404;DHT22;8311;50.158;8.642;2022-07-01T11:56:37;26.90;43.80
16404;DHT22;8311;50.158;8.642;2022-07-01T11:59:33;26.90;43.70
16404;DHT22;8311;50.158;8.642;2022-07-01T12:02:28;26.90;43.60
16404;DHT22;8311;50.158;8.642;2022-07-01T12:05:23;26.90;43.60
16404;DHT22;8311;50.158;8.642;2022-07-01T12:08:17;26.90;44.30
16404;DHT22;8311;50.158;8.642;2022-07-01T12:11:10;26.90;43.60
16404;DHT22;8311;50.158;8.642;2022-07-01T12:14:05;26.90;43.60
16404;DHT22;8311;50.158;8.642;2022-07-01T12:16:59;26.90;43.60
16404;DHT22;8311;50.158;8.642;2022-07-01T12:19:54;26.90;43.60
16404;DHT22;8311;50.158;8.642;2022-07-01T12:22:48;26.90;43.70
16404;DHT22;8311;50.158;8.642;2022-07-01T12:25:47;26.90;43.60
16404;DHT22;8311;50.158;8.642;2022-07-01T12:28:40;26.90;44.20
16404;DHT22;8311;50.158;8.642;2022-07-01T12:31:35;26.90;43.60
16404;DHT22;8311;50.158;8.642;2022-07-01T12:34:39;26.90;43.70
16404;DHT22;8311;50.158;8.642;2022-07-01T12:37:35;26.90;43.80
16404;DHT22;8311;50.158;8.642;2022-07-01T12:40:30;26.80;43.50
16404;DHT22;8311;50.158;8.642;2022-07-01T12:43:30;26.90;43.70
16404;DHT22;8311;50.158;8.642;2022-07-01T12:46:27;26.80;43.60
16404;DHT22;8311;50.158;8.642;2022-07-01T12:49:21;26.80;43.60
16404;DHT22;8311;50.158;8.642;2022-07-01T12:52:25;26.80;43.50
16404;DHT22;8311;50.158;8.642;2022-07-01T12:55:20;26.90;43.60
16404;DHT22;8311;50.158;8.642;2022-07-01T12:58:16;26.80;43.60
16404;DHT22;8311;50.158;8.642;2022-07-01T13:01:10;26.80;43.60
16404;DHT22;8311;50.158;8.642;2022-07-01T13:04:03;26.80;43.60
16404;DHT22;8311;50.158;8.642;2022-07-01T13:06:57;26.80;43.80
16404;DHT22;8311;50.158;8.642;2022-07-01T13:09:50;26.80;43.60
16404;DHT22;8311;50.158;8.642;2022-07-01T13:12:44;26.80;43.50
16404;DHT22;8311;50.158;8.642;2022-07-01T13:15:40;26.80;43.50
16404;DHT22;8311;50.158;8.642;2022-07-01T13:18:33;26.90;43.70
16404;DHT22;8311;50.158;8.642;2022-07-01T13:21:27;26.80;43.50
16404;DHT22;8311;50.158;8.642;2022-07-01T13:24:21;26.80;43.60
16404;DHT22;8311;50.158;8.642;2022-07-01T13:27:24;26.80;43.50
16404;DHT22;8311;50.158;8.642;2022-07-01T13:30:18;26.80;43.50
16404;DHT22;8311;50.158;8.642;2022-07-01T13:33:13;26.80;43.50
16404;DHT22;8311;50.158;8.642;2022-07-01T13:36:06;26.80;43.60
16404;DHT22;8311;50.158;8.642;2022-07-01T13:39:00;26.80;43.50
16404;DHT22;8311;50.158;8.642;2022-07-01T13:41:53;26.80;43.60
16404;DHT22;8311;50.158;8.642;2022-07-01T13:44:48;26.80;43.50
16404;DHT22;8311;50.158;8.642;2022-07-01T13:47:41;26.80;43.60
16404;DHT22;8311;50.158;8.642;2022-07-01T13:50:36;26.80;43.60
16404;DHT22;8311;50.158;8.642;2022-07-01T13:53:29;26.80;43.60
16404;DHT22;8311;50.158;8.642;2022-07-01T13:56:23;26.80;43.60
16404;DHT22;8311;50.158;8.642;2022-07-01T13:59:16;26.80;43.60
16404;DHT22;8311;50.158;8.642;2022-07-01T14:02:10;26.80;43.70
16404;DHT22;8311;50.158;8.642;2022-07-01T14:05:04;26.80;43.80
16404;DHT22;8311;50.158;8.642;2022-07-01T14:07:59;26.80;43.70
16404;DHT22;8311;50.158;8.642;2022-07-01T14:10:51;26.80;43.70
16404;DHT22;8311;50.158;8.642;2022-07-01T14:13:44;26.80;43.80
16404;DHT22;8311;50.158;8.642;2022-07-01T14:16:37;26.70;43.70
16404;DHT22;8311;50.158;8.642;2022-07-01T14:19:30;26.80;43.80
16404;DHT22;8311;50.158;8.642;2022-07-01T14:22:24;26.80;43.80
16404;DHT22;8311;50.158;8.642;2022-07-01T14:25:19;26.80;43.80
16404;DHT22;8311;50.158;8.642;2022-07-01T14:28:12;26.80;43.80
16404;DHT22;8311;50.158;8.642;2022-07-01T14:31:06;26.80;43.80
16404;DHT22;8311;50.158;8.642;2022-07-01T14:33:59;26.80;43.90
16404;DHT22;8311;50.158;8.642;2022-07-01T14:36:52;26.80;43.80
16404;DHT22;8311;50.158;8.642;2022-07-01T14:39:45;26.70;44.00
16404;DHT22;8311;50.158;8.642;2022-07-01T14:42:44;26.80;44.00
16404;DHT22;8311;50.158;8.642;2022-07-01T14:45:38;26.80;43.90
16404;DHT22;8311;50.158;8.642;2022-07-01T14:48:31;26.70;44.40
16404;DHT22;8311;50.158;8.642;2022-07-01T14:51:28;26.80;44.00
16404;DHT22;8311;50.158;8.642;2022-07-01T14:54:20;26.80;43.80
16404;DHT22;8311;50.158;8.642;2022-07-01T14:57:14;26.80;43.90
16404;DHT22;8311;50.158;8.642;2022-07-01T15:00:09;26.70;43.70
16404;DHT22;8311;50.158;8.642;2022-07-01T15:03:03;26.70;43.80
16404;DHT22;8311;50.158;8.642;2022-07-01T15:05:56;26.70;43.90
16404;DHT22;8311;50.158;8.642;2022-07-01T15:08:49;26.70;43.80
16404;DHT22;8311;50.158;8.642;2022-07-01T15:11:42;26.70;43.90
16404;DHT22;8311;50.158;8.642;2022-07-01T15:14:36;26.70;43.90
16404;DHT22;8311;50.158;8.642;2022-07-01T15:17:31;26.70;43.90
16404;DHT22;8311;50.158;8.642;2022-07-01T15:20:26;26.70;44.00
16404;DHT22;8311;50.158;8.642;2022-07-01T15:23:19;26.70;43.90
16404;DHT22;8311;50.158;8.642;2022-07-01T15:26:13;26.70;43.90
16404;DHT22;8311;50.158;8.642;2022-07-01T15:29:06;26.70;44.00
16404;DHT22;8311;50.158;8.642;2022-07-01T15:32:00;26.70;44.00
16404;DHT22;8311;50.158;8.642;2022-07-01T15:34:55;26.70;44.70
16404;DHT22;8311;50.158;8.642;2022-07-01T15:37:49;26.70;44.00
16404;DHT22;8311;50.158;8.642;2022-07-01T15:40:43;26.70;43.90
16404;DHT22;8311;50.158;8.642;2022-07-01T15:43:37;26.70;44.00
16404;DHT22;8311;50.158;8.642;2022-07-01T15:46:31;26.70;44.00
16404;DHT22;8311;50.158;8.642;2022-07-01T15:49:25;26.70;43.90
16404;DHT22;8311;50.158;8.642;2022-07-01T15:52:20;26.70;44.00
16404;DHT22;8311;50.158;8.642;2022-07-01T15:55:13;26.70;44.10
16404;DHT22;8311;50.158;8.642;2022-07-01T15:58:06;26.70;44.00
16404;DHT22;8311;50.158;8.642;2022-07-01T16:01:01;26.70;43.90
16404;DHT22;8311;50.158;8.642;2022-07-01T16:03:55;26.70;44.10
16404;DHT22;8311;50.158;8.642;2022-07-01T16:06:49;26.70;44.00
16404;DHT22;8311;50.158;8.642;2022-07-01T16:09:44;26.70;43.90
16404;DHT22;8311;50.158;8.642;2022-07-01T16:12:45;26.70;44.00
16404;DHT22;8311;50.158;8.642;2022-07-01T16:15:40;26.70;44.10
16404;DHT22;8311;50.158;8.642;2022-07-01T16:18:34;26.70;44.00
16404;DHT22;8311;50.158;8.642;2022-07-01T16:21:29;26.70;44.00
16404;DHT22;8311;50.158;8.642;2022-07-01T16:24:22;26.70;43.90
16404;DHT22;8311;50.158;8.642;2022-07-01T16:27:17;26.70;43.90
16404;DHT22;8311;50.158;8.642;2022-07-01T16:30:12;26.70;44.00
16404;DHT22;8311;50.158;8.642;2022-07-01T16:33:07;26.70;44.10
16404;DHT22;8311;50.158;8.642;2022-07-01T16:36:05;26.70;44.00
16404;DHT22;8311;50.158;8.642;2022-07-01T16:39:03;26.70;44.00
16404;DHT22;8311;50.158;8.642;2022-07-01T16:42:00;26.70;44.10
16404;DHT22;8311;50.158;8.642;2022-07-01T16:44:58;26.70;44.00
16404;DHT22;8311;50.158;8.642;2022-07-01T16:47:54;26.70;44.10
16404;DHT22;8311;50.158;8.642;2022-07-01T16:50:52;26.70;44.00
16404;DHT22;8311;50.158;8.642;2022-07-01T16:53:46;26.70;44.00
16404;DHT22;8311;50.158;8.642;2022-07-01T16:56:42;26.70;44.00
16404;DHT22;8311;50.158;8.642;2022-07-01T16:59:35;26.70;44.00
16404;DHT22;8311;50.158;8.642;2022-07-01T17:02:31;26.60;44.00
16404;DHT22;8311;50.158;8.642;2022-07-01T17:05:25;26.70;44.00
16404;DHT22;8311;50.158;8.642;2022-07-01T17:08:21;26.70;44.10
16404;DHT22;8311;50.158;8.642;2022-07-01T17:11:15;26.60;44.00
16404;DHT22;8311;50.158;8.642;2022-07-01T17:14:11;26.70;44.10
16404;DHT22;8311;50.158;8.642;2022-07-01T17:17:07;26.70;44.00
16404;DHT22;8311;50.158;8.642;2022-07-01T17:20:02;26.60;44.00
16404;DHT22;8311;50.158;8.642;2022-07-01T17:23:02;26.60;44.00
16404;DHT22;8311;50.158;8.642;2022-07-01T17:25:59;26.60;44.00
16404;DHT22;8311;50.158;8.642;2022-07-01T17:28:57;26.60;44.00
16404;DHT22;8311;50.158;8.642;2022-07-01T17:31:55;26.60;44.00
16404;DHT22;8311;50.158;8.642;2022-07-01T17:34:49;26.60;44.10
16404;DHT22;8311;50.158;8.642;2022-07-01T17:37:47;26.60;44.10
16404;DHT22;8311;50.158;8.642;2022-07-01T17:40:47;26.60;44.00
16404;DHT22;8311;50.158;8.642;2022-07-01T17:43:43;26.60;44.10
16404;DHT22;8311;50.158;8.642;2022-07-01T17:46:39;26.60;44.40
16404;DHT22;8311;50.158;8.642;2022-07-01T17:49:39;26.60;44.10
16404;DHT22;8311;50.158;8.642;2022-07-01T17:52:34;26.60;44.10
16404;DHT22;8311;50.158;8.642;2022-07-01T17:55:30;26.60;44.10
16404;DHT22;8311;50.158;8.642;2022-07-01T17:58:25;26.60;44.10
16404;DHT22;8311;50.158;8.642;2022-07-01T18:01:21;26.60;44.10
16404;DHT22;8311;50.158;8.642;2022-07-01T18:04:16;26.60;44.10
16404;DHT22;8311;50.158;8.642;2022-07-01T18:07:10;26.60;44.10
16404;DHT22;8311;50.158;8.642;2022-07-01T18:10:07;26.60;44.10
16404;DHT22;8311;50.158;8.642;2022-07-01T18:13:03;26.60;44.10
16404;DHT22;8311;50.158;8.642;2022-07-01T18:16:06;26.60;44.20
16404;DHT22;8311;50.158;8.642;2022-07-01T18:19:08;26.60;44.20
16404;DHT22;8311;50.158;8.642;2022-07-01T18:22:05;26.60;44.10
16404;DHT22;8311;50.158;8.642;2022-07-01T18:25:02;26.60;44.20
16404;DHT22;8311;50.158;8.642;2022-07-01T18:27:58;26.60;44.10
16404;DHT22;8311;50.158;8.642;2022-07-01T18:30:57;26.60;44.10
16404;DHT22;8311;50.158;8.642;2022-07-01T18:33:56;26.60;44.20
16404;DHT22;8311;50.158;8.642;2022-07-01T18:36:57;26.60;44.10
16404;DHT22;8311;50.158;8.642;2022-07-01T18:39:51;26.60;44.10
16404;DHT22;8311;50.158;8.642;2022-07-01T18:42:44;26.60;44.10
16404;DHT22;8311;50.158;8.642;2022-07-01T18:45:38;26.60;44.10